AirNav   TITAN Aviation Fuels
 
 1704 users online  

0KS7 Mono Aircraft Airport
Cheney, Kansas, USA

GOING TO CHENEY?


FAA INFORMATION EFFECTIVE 08 SEPTEMBER 2022

Location

FAA Identifier: 0KS7
Lat/Long: 37-42-00.6700N 097-53-13.9900W
37-42.011167N 097-53.233167W
37.7001861,-97.8872194
(estimated)
Elevation: 1510 ft. / 460 m (estimated)
Variation: 07E (1985)
From city: 10 miles NW of CHENEY, KS
Time zone: UTC -5 (UTC -6 during Standard Time)
Zip code: 67025

Airport Operations

Airport use: Private use. Permission required prior to landing
Activation date: 05/1991
Control tower: no
ARTCC: KANSAS CITY CENTER
FSS: WICHITA FLIGHT SERVICE STATION
Attendance: CONTINUOUS
Segmented circle: no

Airport Communications

WX AWOS-3PT at 9K8 (11 nm W): 119.325 (620-532-1272)

Nearby radio navigation aids

VOR radial/distance  VOR name  Freq  Var
ICTr252/14.7WICHITA VORTAC113.8007E
HUTr169/17.9HUTCHINSON VOR/DME116.8004E

Airport Services

Fuel available: MOGAS

Runway Information

Runway 18/36

Dimensions: 2000 x 75 ft. / 610 x 23 m
Surface: turf
RUNWAY 18  RUNWAY 36
Latitude: 37-42.175833N37-41.846333N
Longitude: 097-53.231167W097-53.234833W
Elevation: 1510.0 ft.1503.0 ft.
Traffic pattern: leftleft
Runway heading: 173 magnetic, 180 true353 magnetic, 360 true

Airport Ownership and Management from official FAA records

Ownership: Privately-owned
Owner: EDWARD & LEO SAURENMAN
RR 2 BOX 186A
CHENEY, KANSAS 67025
Phone 316-297-4411
Manager: EDWARD & LEO SAURENMAN
RR 2 BOX 186A
CHENEY, KANSAS 67025
Phone 316-297-4411

Additional Remarks

E11 PRVDD APCH MAINT FOR A 20:1 GLIDE SLOPE; MAINT TRANSITIONAL SURFACE FOR A 7:1 SLOPE.
FOR CD CTC WICHITA APCH AT 316-350-1520.

Instrument Procedures

There are no published instrument procedures at 0KS7.

Some nearby airports with instrument procedures:

9K8 - Kingman Airport/Clyde Cessna Field (11 nm W)
KICT - Wichita Dwight D Eisenhower National Airport (22 nm E)
KHUT - Hutchinson Regional Airport (22 nm N)
8K2 - Harper Municipal Airport (26 nm S)
KIAB - Mc Connell Air Force Base (30 nm E)
 
Loc | Ops | Rwys | IFR | FBO | Links
Com | Nav | Svcs | Stats | Notes
Area around 0KS7 (Mono Aircraft Airport)
 
Road maps at: MapQuest Bing Google
 
Aerial photo
No photo
 
Sectional chart

 
Airport distance calculator
Flying to Mono Aircraft Airport? Find the distance to fly.

From to 0KS7

Sunrise and sunset
Times for 04-Oct-2022
 Local
(UTC-5)
 Zulu
(UTC)
Morning civil twilight07:0512:05
Sunrise07:3112:31
Sunset19:1000:10
Evening civil twilight19:3600:36

Current date and time
Zulu (UTC)  04-Oct-2022 19:55:41
Local (UTC-5)  04-Oct-2022 14:55:41
 
METAR
KICT 
22nm E 
041853Z 21011G20KT 10SM FEW150 SCT200 29/04 A3008 RMK AO2 PK WND 17026/1828 SLP176 T02890039
KHUT 
22nm N 
041852Z 18014G21KT 10SM CLR 29/04 A3008 RMK AO2 SLP165 T02890039
KIAB 
30nm E 
041855Z AUTO 20008G17KT 10SM CLR 28/03 A3006 RMK AO2 SLP172 T02840033
KBEC 
32nm E 
041935Z AUTO 17011G19KT 10SM CLR 29/02 A3007 RMK AO2 T02860024
KAAO 
32nm E 
041854Z AUTO 19010G21KT 10SM CLR 29/03 A3009 RMK AO2 SLP180 T02890028
KEWK 
36nm NE 
041856Z AUTO 17013KT 10SM CLR 28/05 A3010 RMK AO2 SLP178 T02830050
K1K1 
37nm E 
041935Z AUTO 20010G20KT 10SM CLR 28/01 A3008 RMK AO2 T02820009
K3AU 
38nm E 
041935Z AUTO 19009KT 10SM CLR 28/M04 A3007 RMK AO2
KMPR 
40nm N 
041935Z AUTO 20014G17KT 10SM CLR 29/04 A3006 RMK AO2 T02950035
KP28 
40nm SW 
041856Z AUTO 18012G21KT 28/06 A3006 RMK AO1 SLP167 T02830056 $
TAF
KICT 
22nm E 
041740Z 0418/0518 19014KT P6SM FEW250 FM050200 16006KT P6SM SCT110 FM051300 30006KT P6SM SCT230 FM051500 33007KT P6SM SCT210
KHUT 
22nm N 
041740Z 0418/0518 18012KT P6SM SCT200 FM050000 20008KT P6SM SCT190 FM050200 VRB03KT P6SM BKN170 FM051600 34007KT P6SM FEW250
NOTAMs
Click for the latest NOTAMs
NOTAMs are issued by the DoD/FAA and will open in a separate window not controlled by AirNav.

 

 
 

Would you like to see your business listed on this page?

 If your business provides an interesting product or service to pilots, flight crews, aircraft, or users of the Mono Aircraft Airport, you should consider listing it here.  To start the listing process, click on the button below
 
Add a business
 

Other Pages about Mono Aircraft Airport

Update a link
 
Copyright © AirNav, LLC. All rights reserved. Privacy Policy  Contact